sensor_id;sensor_type;location;lat;lon;timestamp;temperature;humidity
67147;DHT22;54061;52.036;5.558;2022-09-12T04:00:37;14.80;89.70
67147;DHT22;54061;52.036;5.558;2022-09-12T04:03:03;14.80;88.20
67147;DHT22;54061;52.036;5.558;2022-09-12T04:05:29;14.90;88.30
67147;DHT22;54061;52.036;5.558;2022-09-12T04:07:54;14.90;88.30
67147;DHT22;54061;52.036;5.558;2022-09-12T04:10:20;14.80;89.40
67147;DHT22;54061;52.036;5.558;2022-09-12T04:12:45;14.70;89.70
67147;DHT22;54061;52.036;5.558;2022-09-12T04:15:11;14.60;90.10
67147;DHT22;54061;52.036;5.558;2022-09-12T04:17:37;14.50;90.70
67147;DHT22;54061;52.036;5.558;2022-09-12T04:20:03;14.50;90.90
67147;DHT22;54061;52.036;5.558;2022-09-12T04:22:28;14.40;91.00
67147;DHT22;54061;52.036;5.558;2022-09-12T04:24:56;14.40;91.30
67147;DHT22;54061;52.036;5.558;2022-09-12T04:27:21;14.40;91.50
67147;DHT22;54061;52.036;5.558;2022-09-12T04:29:47;14.40;91.50
67147;DHT22;54061;52.036;5.558;2022-09-12T04:32:12;14.30;91.30
67147;DHT22;54061;52.036;5.558;2022-09-12T04:34:39;14.40;90.90
67147;DHT22;54061;52.036;5.558;2022-09-12T04:37:04;14.40;90.80
67147;DHT22;54061;52.036;5.558;2022-09-12T04:39:30;14.50;91.00
67147;DHT22;54061;52.036;5.558;2022-09-12T04:41:55;14.40;91.30
67147;DHT22;54061;52.036;5.558;2022-09-12T04:44:21;14.40;91.40
67147;DHT22;54061;52.036;5.558;2022-09-12T04:46:47;14.40;91.50
67147;DHT22;54061;52.036;5.558;2022-09-12T04:49:14;14.40;91.90
67147;DHT22;54061;52.036;5.558;2022-09-12T04:51:41;14.30;91.80
67147;DHT22;54061;52.036;5.558;2022-09-12T04:54:15;14.40;91.70
67147;DHT22;54061;52.036;5.558;2022-09-12T04:56:43;14.40;91.70
67147;DHT22;54061;52.036;5.558;2022-09-12T04:59:10;14.40;91.30
67147;DHT22;54061;52.036;5.558;2022-09-12T05:01:35;14.50;91.60
67147;DHT22;54061;52.036;5.558;2022-09-12T05:04:01;14.40;91.70
67147;DHT22;54061;52.036;5.558;2022-09-12T05:06:30;14.40;92.20
67147;DHT22;54061;52.036;5.558;2022-09-12T05:08:56;14.30;92.10
67147;DHT22;54061;52.036;5.558;2022-09-12T05:11:25;14.30;92.00
67147;DHT22;54061;52.036;5.558;2022-09-12T05:13:51;14.30;92.20
67147;DHT22;54061;52.036;5.558;2022-09-12T05:16:18;14.30;92.20
67147;DHT22;54061;52.036;5.558;2022-09-12T05:18:44;14.30;92.20
67147;DHT22;54061;52.036;5.558;2022-09-12T05:21:13;14.30;92.20
67147;DHT22;54061;52.036;5.558;2022-09-12T05:23:39;14.40;92.10
67147;DHT22;54061;52.036;5.558;2022-09-12T05:26:06;14.40;92.20
67147;DHT22;54061;52.036;5.558;2022-09-12T05:28:34;14.40;92.20
67147;DHT22;54061;52.036;5.558;2022-09-12T05:31:10;14.40;92.20
67147;DHT22;54061;52.036;5.558;2022-09-12T05:33:38;14.40;93.30
67147;DHT22;54061;52.036;5.558;2022-09-12T05:36:05;14.40;92.50
67147;DHT22;54061;52.036;5.558;2022-09-12T05:38:34;14.40;92.60
67147;DHT22;54061;52.036;5.558;2022-09-12T05:41:07;14.40;92.70
67147;DHT22;54061;52.036;5.558;2022-09-12T05:43:34;14.40;93.50
67147;DHT22;54061;52.036;5.558;2022-09-12T05:46:01;14.40;92.90
67147;DHT22;54061;52.036;5.558;2022-09-12T05:48:27;14.40;92.80
67147;DHT22;54061;52.036;5.558;2022-09-12T05:51:02;14.40;92.70
67147;DHT22;54061;52.036;5.558;2022-09-12T05:53:29;14.50;93.40
67147;DHT22;54061;52.036;5.558;2022-09-12T05:56:07;14.40;92.80
67147;DHT22;54061;52.036;5.558;2022-09-12T05:58:34;14.50;93.90
67147;DHT22;54061;52.036;5.558;2022-09-12T06:01:05;14.50;92.80
67147;DHT22;54061;52.036;5.558;2022-09-12T06:03:32;14.40;93.30
67147;DHT22;54061;52.036;5.558;2022-09-12T06:06:01;14.50;97.80
67147;DHT22;54061;52.036;5.558;2022-09-12T06:08:26;14.40;93.50
67147;DHT22;54061;52.036;5.558;2022-09-12T06:11:00;14.40;93.10
67147;DHT22;54061;52.036;5.558;2022-09-12T06:13:26;14.40;94.60
67147;DHT22;54061;52.036;5.558;2022-09-12T06:15:52;14.40;93.40
67147;DHT22;54061;52.036;5.558;2022-09-12T06:18:18;14.40;93.40
67147;DHT22;54061;52.036;5.558;2022-09-12T06:20:45;14.30;93.70
67147;DHT22;54061;52.036;5.558;2022-09-12T06:23:11;14.30;93.60
67147;DHT22;54061;52.036;5.558;2022-09-12T06:25:37;14.30;93.90
67147;DHT22;54061;52.036;5.558;2022-09-12T06:28:03;14.30;93.70
67147;DHT22;54061;52.036;5.558;2022-09-12T06:30:29;14.30;93.50
67147;DHT22;54061;52.036;5.558;2022-09-12T06:32:55;14.30;93.40
67147;DHT22;54061;52.036;5.558;2022-09-12T06:35:21;14.30;93.80
67147;DHT22;54061;52.036;5.558;2022-09-12T06:37:48;14.30;93.60
67147;DHT22;54061;52.036;5.558;2022-09-12T06:40:13;14.30;93.50
67147;DHT22;54061;52.036;5.558;2022-09-12T06:42:39;14.40;93.60
67147;DHT22;54061;52.036;5.558;2022-09-12T06:45:05;14.40;93.50
67147;DHT22;54061;52.036;5.558;2022-09-12T06:47:30;14.40;93.70
67147;DHT22;54061;52.036;5.558;2022-09-12T06:49:56;14.40;93.70
67147;DHT22;54061;52.036;5.558;2022-09-12T06:52:21;14.40;93.50
67147;DHT22;54061;52.036;5.558;2022-09-12T06:54:47;14.50;93.80
67147;DHT22;54061;52.036;5.558;2022-09-12T06:57:12;14.50;93.90
67147;DHT22;54061;52.036;5.558;2022-09-12T06:59:39;14.60;93.70
67147;DHT22;54061;52.036;5.558;2022-09-12T07:02:04;14.70;93.60
67147;DHT22;54061;52.036;5.558;2022-09-12T07:04:30;14.70;93.90
67147;DHT22;54061;52.036;5.558;2022-09-12T07:06:57;14.70;93.80
67147;DHT22;54061;52.036;5.558;2022-09-12T07:09:23;14.70;94.40
67147;DHT22;54061;52.036;5.558;2022-09-12T07:11:48;14.70;94.30
67147;DHT22;54061;52.036;5.558;2022-09-12T07:14:14;14.80;94.50
67147;DHT22;54061;52.036;5.558;2022-09-12T07:16:40;14.80;94.00
67147;DHT22;54061;52.036;5.558;2022-09-12T07:19:07;14.90;94.00
67147;DHT22;54061;52.036;5.558;2022-09-12T07:21:33;15.00;93.80
67147;DHT22;54061;52.036;5.558;2022-09-12T07:24:04;15.10;93.70
67147;DHT22;54061;52.036;5.558;2022-09-12T07:26:29;15.20;93.70
67147;DHT22;54061;52.036;5.558;2022-09-12T07:28:56;15.20;93.80
67147;DHT22;54061;52.036;5.558;2022-09-12T07:31:25;15.30;93.50
67147;DHT22;54061;52.036;5.558;2022-09-12T07:33:51;15.40;93.50
67147;DHT22;54061;52.036;5.558;2022-09-12T07:36:19;15.50;93.60
67147;DHT22;54061;52.036;5.558;2022-09-12T07:38:45;15.60;93.50
67147;DHT22;54061;52.036;5.558;2022-09-12T07:41:17;15.60;93.40
67147;DHT22;54061;52.036;5.558;2022-09-12T07:43:43;15.70;95.10
67147;DHT22;54061;52.036;5.558;2022-09-12T07:46:10;15.70;93.20
67147;DHT22;54061;52.036;5.558;2022-09-12T07:48:36;15.80;93.10
67147;DHT22;54061;52.036;5.558;2022-09-12T07:51:05;15.80;93.30
67147;DHT22;54061;52.036;5.558;2022-09-12T07:53:37;15.90;93.60
67147;DHT22;54061;52.036;5.558;2022-09-12T07:56:03;16.00;94.10
67147;DHT22;54061;52.036;5.558;2022-09-12T07:58:30;16.00;93.50
67147;DHT22;54061;52.036;5.558;2022-09-12T08:01:17;16.10;93.20
67147;DHT22;54061;52.036;5.558;2022-09-12T08:03:45;16.20;95.30
67147;DHT22;54061;52.036;5.558;2022-09-12T08:06:19;16.30;93.00
67147;DHT22;54061;52.036;5.558;2022-09-12T08:08:46;16.50;94.20
67147;DHT22;54061;52.036;5.558;2022-09-12T08:11:15;16.60;92.40
67147;DHT22;54061;52.036;5.558;2022-09-12T08:13:42;16.80;92.80
67147;DHT22;54061;52.036;5.558;2022-09-12T08:16:13;16.80;92.20
67147;DHT22;54061;52.036;5.558;2022-09-12T08:18:39;16.90;92.50
67147;DHT22;54061;52.036;5.558;2022-09-12T08:21:08;17.10;91.90
67147;DHT22;54061;52.036;5.558;2022-09-12T08:23:34;17.20;92.00
67147;DHT22;54061;52.036;5.558;2022-09-12T08:26:02;17.40;91.60
67147;DHT22;54061;52.036;5.558;2022-09-12T08:28:29;17.60;92.00
67147;DHT22;54061;52.036;5.558;2022-09-12T08:31:06;17.60;91.50
67147;DHT22;54061;52.036;5.558;2022-09-12T08:33:32;17.80;92.30
67147;DHT22;54061;52.036;5.558;2022-09-12T08:36:06;18.00;91.00
67147;DHT22;54061;52.036;5.558;2022-09-12T08:38:33;18.10;92.50
67147;DHT22;54061;52.036;5.558;2022-09-12T08:43:51;18.50;90.70
67147;DHT22;54061;52.036;5.558;2022-09-12T08:46:23;18.70;90.60
67147;DHT22;54061;52.036;5.558;2022-09-12T08:48:51;19.00;90.60
67147;DHT22;54061;52.036;5.558;2022-09-12T08:51:18;19.20;91.00
67147;DHT22;54061;52.036;5.558;2022-09-12T08:53:46;19.50;91.60
67147;DHT22;54061;52.036;5.558;2022-09-12T08:56:14;19.80;92.10
67147;DHT22;54061;52.036;5.558;2022-09-12T08:58:43;20.00;92.60
67147;DHT22;54061;52.036;5.558;2022-09-12T09:04:09;20.50;92.00
67147;DHT22;54061;52.036;5.558;2022-09-12T09:12:36;21.20;92.10
67147;DHT22;54061;52.036;5.558;2022-09-12T09:17:45;21.40;90.80
67147;DHT22;54061;52.036;5.558;2022-09-12T09:20:18;21.40;88.80
67147;DHT22;54061;52.036;5.558;2022-09-12T09:22:51;21.40;94.50
67147;DHT22;54061;52.036;5.558;2022-09-12T09:25:25;21.60;93.90
67147;DHT22;54061;52.036;5.558;2022-09-12T09:28:01;21.90;91.60
67147;DHT22;54061;52.036;5.558;2022-09-12T09:30:29;21.90;88.00
67147;DHT22;54061;52.036;5.558;2022-09-12T09:32:59;21.90;94.40
67147;DHT22;54061;52.036;5.558;2022-09-12T09:35:47;22.10;94.00
67147;DHT22;54061;52.036;5.558;2022-09-12T09:38:17;22.30;78.00
67147;DHT22;54061;52.036;5.558;2022-09-12T09:41:10;22.40;93.80
67147;DHT22;54061;52.036;5.558;2022-09-12T09:43:39;22.50;77.90
67147;DHT22;54061;52.036;5.558;2022-09-12T09:46:05;22.70;93.70
67147;DHT22;54061;52.036;5.558;2022-09-12T09:48:36;22.80;93.20
67147;DHT22;54061;52.036;5.558;2022-09-12T09:51:04;22.90;89.90
67147;DHT22;54061;52.036;5.558;2022-09-12T09:53:57;22.90;90.50
67147;DHT22;54061;52.036;5.558;2022-09-12T09:56:27;22.90;84.70
67147;DHT22;54061;52.036;5.558;2022-09-12T09:58:53;23.30;92.80
67147;DHT22;54061;52.036;5.558;2022-09-12T10:01:18;23.40;92.40
67147;DHT22;54061;52.036;5.558;2022-09-12T10:03:52;23.60;91.90
67147;DHT22;54061;52.036;5.558;2022-09-12T10:08:44;23.60;91.30
67147;DHT22;54061;52.036;5.558;2022-09-12T10:11:17;23.60;91.40
67147;DHT22;54061;52.036;5.558;2022-09-12T10:16:21;23.70;85.20
67147;DHT22;54061;52.036;5.558;2022-09-12T10:18:49;23.60;83.70
67147;DHT22;54061;52.036;5.558;2022-09-12T10:23:52;23.80;84.20
67147;DHT22;54061;52.036;5.558;2022-09-12T10:26:24;23.80;84.00
67147;DHT22;54061;52.036;5.558;2022-09-12T10:28:53;23.80;88.50
67147;DHT22;54061;52.036;5.558;2022-09-12T10:31:27;23.90;87.80
67147;DHT22;54061;52.036;5.558;2022-09-12T10:33:56;24.00;72.50
67147;DHT22;54061;52.036;5.558;2022-09-12T10:36:23;23.80;78.00
67147;DHT22;54061;52.036;5.558;2022-09-12T10:38:57;23.90;87.40
67147;DHT22;54061;52.036;5.558;2022-09-12T10:41:23;24.20;86.30
67147;DHT22;54061;52.036;5.558;2022-09-12T10:43:49;24.60;86.60
67147;DHT22;54061;52.036;5.558;2022-09-12T10:48:48;24.40;84.00
67147;DHT22;54061;52.036;5.558;2022-09-12T10:53:50;24.80;86.20
67147;DHT22;54061;52.036;5.558;2022-09-12T10:56:19;25.50;84.60
67147;DHT22;54061;52.036;5.558;2022-09-12T10:59:16;25.50;82.40
67147;DHT22;54061;52.036;5.558;2022-09-12T11:01:58;25.80;66.00
67147;DHT22;54061;52.036;5.558;2022-09-12T11:07:13;25.50;62.10
67147;DHT22;54061;52.036;5.558;2022-09-12T11:10:09;25.30;83.20
67147;DHT22;54061;52.036;5.558;2022-09-12T11:12:47;25.70;59.70
67147;DHT22;54061;52.036;5.558;2022-09-12T11:18:02;25.70;61.30
67147;DHT22;54061;52.036;5.558;2022-09-12T11:23:55;25.50;58.00
67147;DHT22;54061;52.036;5.558;2022-09-12T11:26:49;25.20;67.60
67147;DHT22;54061;52.036;5.558;2022-09-12T11:29:42;25.50;74.70
67147;DHT22;54061;52.036;5.558;2022-09-12T11:35:24;25.30;57.90
67147;DHT22;54061;52.036;5.558;2022-09-12T11:40:55;24.70;58.00
67147;DHT22;54061;52.036;5.558;2022-09-12T11:46:21;24.60;57.40
67147;DHT22;54061;52.036;5.558;2022-09-12T11:54:42;24.40;61.40
67147;DHT22;54061;52.036;5.558;2022-09-12T11:59:58;24.20;61.30
67147;DHT22;54061;52.036;5.558;2022-09-12T12:02:29;24.20;62.40
67147;DHT22;54061;52.036;5.558;2022-09-12T12:07:41;24.00;63.10
67147;DHT22;54061;52.036;5.558;2022-09-12T12:13:14;23.90;60.70
67147;DHT22;54061;52.036;5.558;2022-09-12T12:15:47;24.00;60.80
67147;DHT22;54061;52.036;5.558;2022-09-12T12:18:23;24.10;60.30
67147;DHT22;54061;52.036;5.558;2022-09-12T12:20:50;24.10;59.00
67147;DHT22;54061;52.036;5.558;2022-09-12T12:23:29;24.00;62.10
67147;DHT22;54061;52.036;5.558;2022-09-12T12:25:58;24.20;60.20
67147;DHT22;54061;52.036;5.558;2022-09-12T12:31:17;24.30;58.10
67147;DHT22;54061;52.036;5.558;2022-09-12T12:36:31;24.40;61.70
67147;DHT22;54061;52.036;5.558;2022-09-12T12:38:55;24.40;61.40
67147;DHT22;54061;52.036;5.558;2022-09-12T12:43:48;24.50;60.70
67147;DHT22;54061;52.036;5.558;2022-09-12T12:46:24;24.60;61.30
67147;DHT22;54061;52.036;5.558;2022-09-12T12:51:38;24.40;60.10
67147;DHT22;54061;52.036;5.558;2022-09-12T12:59:59;24.40;59.40
67147;DHT22;54061;52.036;5.558;2022-09-12T13:02:32;24.40;60.20
67147;DHT22;54061;52.036;5.558;2022-09-12T13:05:01;24.40;59.30
67147;DHT22;54061;52.036;5.558;2022-09-12T13:07:34;24.60;59.60
67147;DHT22;54061;52.036;5.558;2022-09-12T13:10:01;24.70;57.00
67147;DHT22;54061;52.036;5.558;2022-09-12T13:12:34;24.70;58.70
67147;DHT22;54061;52.036;5.558;2022-09-12T13:15:02;24.60;57.70
67147;DHT22;54061;52.036;5.558;2022-09-12T13:17:40;24.40;57.70
67147;DHT22;54061;52.036;5.558;2022-09-12T13:20:25;24.30;57.00
67147;DHT22;54061;52.036;5.558;2022-09-12T13:22:54;24.40;57.00
67147;DHT22;54061;52.036;5.558;2022-09-12T13:30:38;24.60;56.90
67147;DHT22;54061;52.036;5.558;2022-09-12T13:35:53;24.50;57.70
67147;DHT22;54061;52.036;5.558;2022-09-12T13:38:36;24.50;57.10
67147;DHT22;54061;52.036;5.558;2022-09-12T13:41:30;24.60;56.60
67147;DHT22;54061;52.036;5.558;2022-09-12T13:43:59;24.60;57.00
67147;DHT22;54061;52.036;5.558;2022-09-12T13:46:29;24.70;59.40
67147;DHT22;54061;52.036;5.558;2022-09-12T13:48:59;24.90;59.20
67147;DHT22;54061;52.036;5.558;2022-09-12T13:51:28;24.90;58.50
67147;DHT22;54061;52.036;5.558;2022-09-12T13:53:58;25.00;57.50
67147;DHT22;54061;52.036;5.558;2022-09-12T13:56:24;24.90;57.20
67147;DHT22;54061;52.036;5.558;2022-09-12T13:58:54;24.70;58.40
67147;DHT22;54061;52.036;5.558;2022-09-12T14:01:23;24.60;56.20
67147;DHT22;54061;52.036;5.558;2022-09-12T14:03:55;24.60;59.00
67147;DHT22;54061;52.036;5.558;2022-09-12T14:06:49;24.70;57.10
67147;DHT22;54061;52.036;5.558;2022-09-12T14:09:25;24.80;57.80
67147;DHT22;54061;52.036;5.558;2022-09-12T14:11:53;24.80;56.30
67147;DHT22;54061;52.036;5.558;2022-09-12T14:14:34;24.80;58.50
67147;DHT22;54061;52.036;5.558;2022-09-12T14:17:35;24.90;55.10
67147;DHT22;54061;52.036;5.558;2022-09-12T14:20:21;25.00;56.90
67147;DHT22;54061;52.036;5.558;2022-09-12T14:22:51;25.00;54.70
67147;DHT22;54061;52.036;5.558;2022-09-12T14:25:19;25.00;57.00
67147;DHT22;54061;52.036;5.558;2022-09-12T14:27:50;24.80;57.20
67147;DHT22;54061;52.036;5.558;2022-09-12T14:30:21;24.60;56.90
67147;DHT22;54061;52.036;5.558;2022-09-12T14:35:45;24.70;56.40
67147;DHT22;54061;52.036;5.558;2022-09-12T14:40:48;24.70;55.90
67147;DHT22;54061;52.036;5.558;2022-09-12T14:43:34;24.60;56.10
67147;DHT22;54061;52.036;5.558;2022-09-12T14:46:17;24.50;54.90
67147;DHT22;54061;52.036;5.558;2022-09-12T14:48:50;24.40;57.60
67147;DHT22;54061;52.036;5.558;2022-09-12T14:51:20;24.40;56.70
67147;DHT22;54061;52.036;5.558;2022-09-12T14:53:48;24.40;57.90
67147;DHT22;54061;52.036;5.558;2022-09-12T14:56:14;24.60;58.50
67147;DHT22;54061;52.036;5.558;2022-09-12T14:58:40;24.70;58.60
67147;DHT22;54061;52.036;5.558;2022-09-12T15:06:23;24.60;56.90
67147;DHT22;54061;52.036;5.558;2022-09-12T15:08:51;24.70;56.70
67147;DHT22;54061;52.036;5.558;2022-09-12T15:11:17;24.70;56.60
67147;DHT22;54061;52.036;5.558;2022-09-12T15:13:43;24.50;57.40
67147;DHT22;54061;52.036;5.558;2022-09-12T15:16:10;24.40;58.00
67147;DHT22;54061;52.036;5.558;2022-09-12T15:18:36;24.40;57.30
67147;DHT22;54061;52.036;5.558;2022-09-12T15:21:04;24.40;58.10
67147;DHT22;54061;52.036;5.558;2022-09-12T15:23:48;24.30;57.90
67147;DHT22;54061;52.036;5.558;2022-09-12T15:26:17;24.40;56.10
67147;DHT22;54061;52.036;5.558;2022-09-12T15:28:43;24.40;56.80
67147;DHT22;54061;52.036;5.558;2022-09-12T15:31:17;24.30;57.40
67147;DHT22;54061;52.036;5.558;2022-09-12T15:33:45;24.30;57.50
67147;DHT22;54061;52.036;5.558;2022-09-12T15:36:16;24.30;58.00
67147;DHT22;54061;52.036;5.558;2022-09-12T15:38:43;24.30;56.90
67147;DHT22;54061;52.036;5.558;2022-09-12T15:43:46;24.20;56.00
67147;DHT22;54061;52.036;5.558;2022-09-12T15:46:13;24.20;57.90
67147;DHT22;54061;52.036;5.558;2022-09-12T15:48:39;24.20;57.40
67147;DHT22;54061;52.036;5.558;2022-09-12T15:51:12;24.30;57.60
67147;DHT22;54061;52.036;5.558;2022-09-12T15:53:38;24.30;56.30
67147;DHT22;54061;52.036;5.558;2022-09-12T15:56:04;24.30;57.80
67147;DHT22;54061;52.036;5.558;2022-09-12T15:58:30;24.30;57.50
67147;DHT22;54061;52.036;5.558;2022-09-12T16:00:55;24.30;57.50
67147;DHT22;54061;52.036;5.558;2022-09-12T16:03:24;24.30;57.80
67147;DHT22;54061;52.036;5.558;2022-09-12T16:05:55;24.30;57.70
67147;DHT22;54061;52.036;5.558;2022-09-12T16:08:21;24.40;57.50
67147;DHT22;54061;52.036;5.558;2022-09-12T16:10:50;24.40;57.60
67147;DHT22;54061;52.036;5.558;2022-09-12T16:13:17;24.30;57.20
67147;DHT22;54061;52.036;5.558;2022-09-12T16:15:42;24.20;57.90
67147;DHT22;54061;52.036;5.558;2022-09-12T16:18:08;24.10;57.70
67147;DHT22;54061;52.036;5.558;2022-09-12T16:20:34;24.10;58.20
67147;DHT22;54061;52.036;5.558;2022-09-12T16:22:59;24.10;58.10
67147;DHT22;54061;52.036;5.558;2022-09-12T16:25:25;24.20;58.10
67147;DHT22;54061;52.036;5.558;2022-09-12T16:27:50;24.10;57.90
67147;DHT22;54061;52.036;5.558;2022-09-12T16:30:16;24.10;58.10
67147;DHT22;54061;52.036;5.558;2022-09-12T16:32:41;24.10;57.90
67147;DHT22;54061;52.036;5.558;2022-09-12T16:35:07;24.10;58.00
67147;DHT22;54061;52.036;5.558;2022-09-12T16:37:33;23.90;58.00
67147;DHT22;54061;52.036;5.558;2022-09-12T16:39:59;23.90;58.20
67147;DHT22;54061;52.036;5.558;2022-09-12T16:42:25;24.00;58.40
67147;DHT22;54061;52.036;5.558;2022-09-12T16:44:50;24.00;58.50
67147;DHT22;54061;52.036;5.558;2022-09-12T16:47:16;23.90;58.40
67147;DHT22;54061;52.036;5.558;2022-09-12T16:49:41;23.90;58.60
67147;DHT22;54061;52.036;5.558;2022-09-12T16:52:07;23.80;58.80
67147;DHT22;54061;52.036;5.558;2022-09-12T16:54:32;23.80;58.60
67147;DHT22;54061;52.036;5.558;2022-09-12T16:56:58;23.70;58.70
67147;DHT22;54061;52.036;5.558;2022-09-12T16:59:24;23.70;58.80
67147;DHT22;54061;52.036;5.558;2022-09-12T17:01:50;23.70;58.60
67147;DHT22;54061;52.036;5.558;2022-09-12T17:04:16;23.70;58.80
67147;DHT22;54061;52.036;5.558;2022-09-12T17:06:41;23.60;58.70
67147;DHT22;54061;52.036;5.558;2022-09-12T17:09:08;23.60;58.70
67147;DHT22;54061;52.036;5.558;2022-09-12T17:11:37;23.50;58.80
67147;DHT22;54061;52.036;5.558;2022-09-12T17:14:06;23.50;58.70
67147;DHT22;54061;52.036;5.558;2022-09-12T17:16:33;23.40;58.90
67147;DHT22;54061;52.036;5.558;2022-09-12T17:18:59;23.40;59.10
67147;DHT22;54061;52.036;5.558;2022-09-12T17:21:25;23.30;59.40
67147;DHT22;54061;52.036;5.558;2022-09-12T17:23:50;23.30;59.40
67147;DHT22;54061;52.036;5.558;2022-09-12T17:26:16;23.20;59.70
67147;DHT22;54061;52.036;5.558;2022-09-12T17:28:42;23.20;59.70
67147;DHT22;54061;52.036;5.558;2022-09-12T17:31:10;23.10;59.80
67147;DHT22;54061;52.036;5.558;2022-09-12T17:33:36;23.20;60.10
67147;DHT22;54061;52.036;5.558;2022-09-12T17:36:08;23.20;59.80
67147;DHT22;54061;52.036;5.558;2022-09-12T17:38:36;23.10;59.90
67147;DHT22;54061;52.036;5.558;2022-09-12T17:41:28;23.10;60.30
67147;DHT22;54061;52.036;5.558;2022-09-12T17:43:57;23.10;60.10
67147;DHT22;54061;52.036;5.558;2022-09-12T17:46:25;23.20;60.70
67147;DHT22;54061;52.036;5.558;2022-09-12T17:48:52;23.20;60.70
67147;DHT22;54061;52.036;5.558;2022-09-12T17:51:19;23.20;60.90
67147;DHT22;54061;52.036;5.558;2022-09-12T17:53:45;23.20;60.80
67147;DHT22;54061;52.036;5.558;2022-09-12T17:56:10;23.20;61.00
67147;DHT22;54061;52.036;5.558;2022-09-12T17:58:36;23.20;61.10
67147;DHT22;54061;52.036;5.558;2022-09-12T18:01:10;23.30;61.20
67147;DHT22;54061;52.036;5.558;2022-09-12T18:03:56;23.20;61.20
67147;DHT22;54061;52.036;5.558;2022-09-12T18:06:22;23.20;61.30
67147;DHT22;54061;52.036;5.558;2022-09-12T18:08:48;23.20;61.30
67147;DHT22;54061;52.036;5.558;2022-09-12T18:11:15;23.10;61.50
67147;DHT22;54061;52.036;5.558;2022-09-12T18:13:40;23.10;61.80
67147;DHT22;54061;52.036;5.558;2022-09-12T18:16:08;23.00;62.20
67147;DHT22;54061;52.036;5.558;2022-09-12T18:18:35;22.90;62.60
67147;DHT22;54061;52.036;5.558;2022-09-12T18:21:02;22.90;62.80
67147;DHT22;54061;52.036;5.558;2022-09-12T18:23:28;22.90;62.80
67147;DHT22;54061;52.036;5.558;2022-09-12T18:26:02;22.90;62.80
67147;DHT22;54061;52.036;5.558;2022-09-12T18:28:28;22.90;62.90
67147;DHT22;54061;52.036;5.558;2022-09-12T18:30:55;22.80;63.00
67147;DHT22;54061;52.036;5.558;2022-09-12T18:33:21;22.80;63.00
67147;DHT22;54061;52.036;5.558;2022-09-12T18:35:47;22.80;63.10
67147;DHT22;54061;52.036;5.558;2022-09-12T18:38:12;22.80;63.20
67147;DHT22;54061;52.036;5.558;2022-09-12T18:40:38;22.70;63.40
67147;DHT22;54061;52.036;5.558;2022-09-12T18:43:03;22.60;63.60
67147;DHT22;54061;52.036;5.558;2022-09-12T18:45:29;22.60;63.70
67147;DHT22;54061;52.036;5.558;2022-09-12T18:47:55;22.50;63.70
67147;DHT22;54061;52.036;5.558;2022-09-12T18:50:21;22.60;63.90
67147;DHT22;54061;52.036;5.558;2022-09-12T18:52:51;22.50;64.30
67147;DHT22;54061;52.036;5.558;2022-09-12T18:55:17;22.30;64.90
67147;DHT22;54061;52.036;5.558;2022-09-12T18:57:42;22.00;65.30
67147;DHT22;54061;52.036;5.558;2022-09-12T19:00:08;22.00;65.90
67147;DHT22;54061;52.036;5.558;2022-09-12T19:02:34;21.90;66.00
67147;DHT22;54061;52.036;5.558;2022-09-12T19:04:59;22.00;65.90
67147;DHT22;54061;52.036;5.558;2022-09-12T19:07:25;22.00;65.80
67147;DHT22;54061;52.036;5.558;2022-09-12T19:09:50;22.00;65.80
67147;DHT22;54061;52.036;5.558;2022-09-12T19:12:16;22.00;65.80
67147;DHT22;54061;52.036;5.558;2022-09-12T19:14:42;21.90;65.90
67147;DHT22;54061;52.036;5.558;2022-09-12T19:17:07;22.00;66.00
67147;DHT22;54061;52.036;5.558;2022-09-12T19:19:33;22.00;66.00
67147;DHT22;54061;52.036;5.558;2022-09-12T19:21:59;21.90;66.50
67147;DHT22;54061;52.036;5.558;2022-09-12T19:24:24;21.80;66.70
67147;DHT22;54061;52.036;5.558;2022-09-12T19:26:51;21.80;66.90
67147;DHT22;54061;52.036;5.558;2022-09-12T19:29:17;21.80;66.90
67147;DHT22;54061;52.036;5.558;2022-09-12T19:31:44;21.80;67.10
67147;DHT22;54061;52.036;5.558;2022-09-12T19:34:11;21.70;67.00
67147;DHT22;54061;52.036;5.558;2022-09-12T19:36:37;21.70;67.20
67147;DHT22;54061;52.036;5.558;2022-09-12T19:39:04;21.70;67.40
67147;DHT22;54061;52.036;5.558;2022-09-12T19:41:30;21.50;68.00
67147;DHT22;54061;52.036;5.558;2022-09-12T19:43:56;21.30;68.70
67147;DHT22;54061;52.036;5.558;2022-09-12T19:46:23;21.30;69.10
67147;DHT22;54061;52.036;5.558;2022-09-12T19:48:49;21.30;69.10
67147;DHT22;54061;52.036;5.558;2022-09-12T19:51:17;21.30;69.00
67147;DHT22;54061;52.036;5.558;2022-09-12T19:53:43;21.40;69.60
67147;DHT22;54061;52.036;5.558;2022-09-12T19:56:11;21.30;69.20
67147;DHT22;54061;52.036;5.558;2022-09-12T19:58:39;21.20;70.00
67147;DHT22;54061;52.036;5.558;2022-09-12T20:01:08;21.10;69.90
67147;DHT22;54061;52.036;5.558;2022-09-12T20:03:34;21.00;70.10
67147;DHT22;54061;52.036;5.558;2022-09-12T20:06:04;21.10;70.10
67147;DHT22;54061;52.036;5.558;2022-09-12T20:08:30;21.10;70.00
67147;DHT22;54061;52.036;5.558;2022-09-12T20:10:56;21.20;69.80
67147;DHT22;54061;52.036;5.558;2022-09-12T20:13:21;21.20;69.60
67147;DHT22;54061;52.036;5.558;2022-09-12T20:15:47;21.30;69.70
67147;DHT22;54061;52.036;5.558;2022-09-12T20:18:13;21.30;69.60
67147;DHT22;54061;52.036;5.558;2022-09-12T20:20:38;21.30;69.60
67147;DHT22;54061;52.036;5.558;2022-09-12T20:23:04;21.30;69.70
67147;DHT22;54061;52.036;5.558;2022-09-12T20:25:30;21.20;70.00
67147;DHT22;54061;52.036;5.558;2022-09-12T20:27:56;21.20;70.10
67147;DHT22;54061;52.036;5.558;2022-09-12T20:30:21;21.20;70.00
67147;DHT22;54061;52.036;5.558;2022-09-12T20:32:47;21.10;70.30
67147;DHT22;54061;52.036;5.558;2022-09-12T20:35:13;21.00;71.10
67147;DHT22;54061;52.036;5.558;2022-09-12T20:37:39;20.90;71.20
67147;DHT22;54061;52.036;5.558;2022-09-12T20:40:06;20.90;71.20
67147;DHT22;54061;52.036;5.558;2022-09-12T20:42:31;20.90;71.20
67147;DHT22;54061;52.036;5.558;2022-09-12T20:44:57;20.90;71.20
67147;DHT22;54061;52.036;5.558;2022-09-12T20:47:22;20.90;71.10
67147;DHT22;54061;52.036;5.558;2022-09-12T20:49:48;20.80;71.90
67147;DHT22;54061;52.036;5.558;2022-09-12T20:52:13;20.70;72.10
67147;DHT22;54061;52.036;5.558;2022-09-12T20:54:39;20.70;72.20
67147;DHT22;54061;52.036;5.558;2022-09-12T20:57:05;20.80;71.60
67147;DHT22;54061;52.036;5.558;2022-09-12T20:59:30;20.80;72.10
67147;DHT22;54061;52.036;5.558;2022-09-12T21:01:56;20.80;71.90
67147;DHT22;54061;52.036;5.558;2022-09-12T21:04:21;20.80;71.90
67147;DHT22;54061;52.036;5.558;2022-09-12T21:06:48;20.90;71.90
67147;DHT22;54061;52.036;5.558;2022-09-12T21:09:14;20.90;72.00
67147;DHT22;54061;52.036;5.558;2022-09-12T21:11:40;20.90;72.00
67147;DHT22;54061;52.036;5.558;2022-09-12T21:14:05;20.80;72.50
67147;DHT22;54061;52.036;5.558;2022-09-12T21:16:31;20.60;73.30